Seattle, WA (98199)

1:45 PM PST on February 14, 2016 (GMT -0800)
Magnolia - MaxHome | | Change Station
CLOSE
Current Station
Personal Weather Station
Location: Seattle, WA
Elevation: 226 ft
Nearby Weather Stations

Elev 226 ft 47.65 °N, 122.40 °W | Updated 10 seconds ago

Overcast
Overcast
51.8 °F
Feels Like 51.8 °F
N
5.0
Wind Variable Wind from SW
Gusts 10.0 mph

Today
High -- | Low -- °F
--% Chance of Precip.
Yesterday
High -- | Low -- °F
Precip. -- in
Pressure 30.14 in
Visibility 10.0 miles
Clouds Overcast 1400 ft
Dew Point 50 °F
Humidity 95%
Rainfall 0.02 in
Snow Depth Not available.
7:17 AM 5:30 PM
Waxing Crescent, 45% visible
METAR KRNT 142053Z 14007KT 10SM OVC014 13/10 A3012 RMK AO2 SLP204 60000 T01280100 58004
Pressure 30.14 in
Visibility 10.0 miles
Clouds Overcast 1400 ft
Dew Point 50 °F
Humidity 95%
Rainfall 0.02 in
Snow Depth Not available.
7:17 AM 5:30 PM
Waxing Crescent, 45% visible
METAR KRNT 142053Z 14007KT 10SM OVC014 13/10 A3012 RMK AO2 SLP204 60000 T01280100 58004

10-Day Weather Forecast

Almanac

Astronomy

Feb. 14, 2016 Rise Set
Actual Time
Civil Twilight
Nautical Twilight
Astronomical Twilight
Moon
Length of Visible Light
Length of Day
Tomorrow will be .
, % of the Moon is Illuminated

Today's Extremes

State Highs State Lows

Community

WunderPhotos

Upload Photos

1,892,890 photos uploaded!

WunderBlog® & News

Nearby

Air Quality

  Air Quality AQ Index Pollutant
Not available.

Snow Depth

Station Depth Elevation

Earthquake Activity

City Distance Mag. Time & Date
Minimum magnitude displayed is 2.5.

Coastal Water Temperatures

Place Temperature

Stations

Nearby Weather Stations

Station Location Temp. Windchill Dew Point Humidity Wind Precip. Elev Updated Type
                   

Watches & Warnings

There are currently no watches in effect.